Time;durP1;ratioP1;P1;durP2;ratioP2;P2;SDS_P1;SDS_P2;PMS_P1;PMS_P2;Temp;Humidity;BMP_temperature;BMP_pressure;BME280_temperature;BME280_humidity;BME280_pressure;Samples;Min_cycle;Max_cycle;Signal;HPM_P1;HPM_P2
2022/01/02 00:03:52;;;;;;;18.70;14.75;;;;;;;;;;10437338;27;20464;-58
2022/01/02 00:08:53;;;;;;;16.95;14.95;;;;;;;;;;10437171;27;20066;-59
2022/01/02 00:13:54;;;;;;;22.02;13.20;;;;;;;;;;10437722;27;20406;-58
2022/01/02 00:19:06;;;;;;;21.65;14.30;;;;;;;;;;10438268;27;20087;-59
2022/01/02 00:24:06;;;;;;;16.60;13.00;;;;;;;;;;10432596;27;20067;-59
2022/01/02 00:29:05;;;;;;;14.75;12.75;;;;;;;;;;10436702;27;20079;-59
2022/01/02 00:34:05;;;;;;;16.13;12.93;;;;;;;;;;10438224;27;20035;-58
2022/01/02 00:39:04;;;;;;;16.85;13.63;;;;;;;;;;10437148;27;20075;-59
2022/01/02 00:44:07;;;;;;;15.48;13.27;;;;;;;;;;10437501;27;20067;-58
2022/01/02 00:49:07;;;;;;;21.08;16.35;;;;;;;;;;10436048;27;20278;-59
2022/01/02 00:54:09;;;;;;;14.23;11.95;;;;;;;;;;10416384;27;20062;-58
2022/01/02 00:59:10;;;;;;;15.75;13.95;;;;;;;;;;10431927;27;20067;-55
2022/01/02 01:04:11;;;;;;;15.38;13.38;;;;;;;;;;10416772;27;20046;-58
2022/01/02 01:09:09;;;;;;;15.40;13.35;;;;;;;;;;10433067;27;20059;-58
2022/01/02 01:14:08;;;;;;;16.27;13.40;;;;;;;;;;10399414;27;20074;-58
2022/01/02 01:19:06;;;;;;;16.38;13.70;;;;;;;;;;10405002;27;20581;-58
2022/01/02 01:24:06;;;;;;;14.90;12.75;;;;;;;;;;10435380;27;20066;-58
2022/01/02 01:29:04;;;;;;;15.82;13.52;;;;;;;;;;10410668;27;20153;-58
2022/01/02 01:34:04;;;;;;;14.75;12.88;;;;;;;;;;10415522;27;20051;-58
2022/01/02 01:39:03;;;;;;;14.93;13.07;;;;;;;;;;10435923;27;20484;-59
2022/01/02 01:44:20;;;;;;;16.67;13.65;;;;;;;;;;10428582;27;20059;-59
2022/01/02 01:49:20;;;;;;;17.15;13.45;;;;;;;;;;10402835;27;20538;-58
2022/01/02 01:54:19;;;;;;;20.60;15.18;;;;;;;;;;10416204;27;20047;-59
2022/01/02 01:59:20;;;;;;;19.15;13.80;;;;;;;;;;10414878;27;20070;-59
2022/01/02 02:04:19;;;;;;;14.75;12.38;;;;;;;;;;10416009;27;20051;-57
2022/01/02 02:09:18;;;;;;;16.00;13.50;;;;;;;;;;10433580;27;20112;-58
2022/01/02 02:14:17;;;;;;;16.67;13.95;;;;;;;;;;10413897;27;20067;-59
2022/01/02 02:19:17;;;;;;;14.68;13.10;;;;;;;;;;10413880;28;20472;-56
2022/01/02 02:24:17;;;;;;;14.15;12.48;;;;;;;;;;10413967;28;20074;-58
2022/01/02 02:29:16;;;;;;;14.52;12.45;;;;;;;;;;10415329;28;20075;-58
2022/01/02 02:34:14;;;;;;;15.98;12.75;;;;;;;;;;10415539;28;20043;-58
2022/01/02 02:39:13;;;;;;;15.48;12.15;;;;;;;;;;10433745;28;20078;-58
2022/01/02 02:44:22;;;;;;;17.33;12.48;;;;;;;;;;10432364;28;20074;-58
2022/01/02 02:49:20;;;;;;;15.05;12.38;;;;;;;;;;10414717;28;20043;-58
2022/01/02 02:54:19;;;;;;;17.10;13.85;;;;;;;;;;10435520;27;20070;-58
2022/01/02 02:59:19;;;;;;;17.63;13.90;;;;;;;;;;10440818;27;20094;-58
2022/01/02 03:04:18;;;;;;;17.50;13.75;;;;;;;;;;10423713;27;20492;-58
2022/01/02 03:09:27;;;;;;;17.40;13.68;;;;;;;;;;10433700;27;20140;-58
2022/01/02 03:14:27;;;;;;;21.75;14.70;;;;;;;;;;10439622;27;20083;-58
2022/01/02 03:19:26;;;;;;;18.30;14.30;;;;;;;;;;10420862;27;20455;-58
2022/01/02 03:24:25;;;;;;;17.20;14.70;;;;;;;;;;10439853;27;20058;-58
2022/01/02 03:29:24;;;;;;;17.27;15.07;;;;;;;;;;10420594;27;20082;-59
2022/01/02 03:34:25;;;;;;;19.70;16.10;;;;;;;;;;10420833;27;20039;-58
2022/01/02 03:39:23;;;;;;;18.10;16.13;;;;;;;;;;10421289;27;20459;-58
2022/01/02 03:44:22;;;;;;;16.63;14.63;;;;;;;;;;10420835;27;20089;-57
2022/01/02 03:49:20;;;;;;;19.33;14.98;;;;;;;;;;10435617;27;20067;-58
2022/01/02 03:54:20;;;;;;;16.48;14.57;;;;;;;;;;10419354;27;20070;-57
2022/01/02 03:59:19;;;;;;;16.63;14.23;;;;;;;;;;10437483;27;20077;-57
2022/01/02 04:04:17;;;;;;;17.10;14.70;;;;;;;;;;10438527;27;20308;-57
2022/01/02 04:09:16;;;;;;;20.13;15.70;;;;;;;;;;10418854;27;20082;-57
2022/01/02 04:14:16;;;;;;;19.08;15.07;;;;;;;;;;10395368;28;20071;-58
2022/01/02 04:19:14;;;;;;;19.92;15.05;;;;;;;;;;10397191;28;20109;-53
2022/01/02 04:24:12;;;;;;;17.42;15.38;;;;;;;;;;10395276;28;20039;-59
2022/01/02 04:29:11;;;;;;;19.13;15.50;;;;;;;;;;10393804;28;20492;-58
2022/01/02 04:34:11;;;;;;;17.10;14.68;;;;;;;;;;10394210;28;20039;-58
2022/01/02 04:39:10;;;;;;;16.50;14.73;;;;;;;;;;10378353;28;20071;-58
2022/01/02 04:44:08;;;;;;;17.55;15.43;;;;;;;;;;10394287;28;20048;-58
2022/01/02 04:49:07;;;;;;;18.02;15.45;;;;;;;;;;10396112;28;20446;-59
2022/01/02 04:54:07;;;;;;;15.52;13.93;;;;;;;;;;10395922;28;20063;-58
2022/01/02 04:59:05;;;;;;;17.98;16.08;;;;;;;;;;10392194;28;20098;-58
2022/01/02 05:04:04;;;;;;;20.60;16.80;;;;;;;;;;10378278;28;20078;-58
2022/01/02 05:09:04;;;;;;;18.75;16.75;;;;;;;;;;10394579;28;20074;-58
2022/01/02 05:14:04;;;;;;;23.40;16.35;;;;;;;;;;10385835;28;20086;-59
2022/01/02 05:19:02;;;;;;;18.80;16.58;;;;;;;;;;10392420;28;20544;-56
2022/01/02 05:24:03;;;;;;;17.95;16.05;;;;;;;;;;10391318;28;20075;-57
2022/01/02 05:29:02;;;;;;;22.23;19.92;;;;;;;;;;10389565;28;20078;-58
2022/01/02 05:34:01;;;;;;;21.13;17.77;;;;;;;;;;10392831;28;20051;-59
2022/01/02 05:39:01;;;;;;;45.40;38.03;;;;;;;;;;10392451;28;20047;-58
2022/01/02 05:43:59;;;;;;;23.05;20.40;;;;;;;;;;10391427;28;20043;-58
2022/01/02 05:48:58;;;;;;;26.95;23.08;;;;;;;;;;10391815;28;20440;-57
2022/01/02 05:53:57;;;;;;;28.63;23.20;;;;;;;;;;10392395;28;20067;-56
2022/01/02 05:58:56;;;;;;;65.38;54.63;;;;;;;;;;10386708;28;20079;-58
2022/01/02 06:03:55;;;;;;;53.38;46.83;;;;;;;;;;10379082;28;20067;-58
2022/01/02 06:08:54;;;;;;;28.40;25.27;;;;;;;;;;10391773;28;20082;-57
2022/01/02 06:13:54;;;;;;;23.50;20.42;;;;;;;;;;10389466;28;20075;-58
2022/01/02 06:18:54;;;;;;;24.48;21.38;;;;;;;;;;10378744;28;20551;-59
2022/01/02 06:23:53;;;;;;;20.90;18.83;;;;;;;;;;10376038;28;20039;-59
2022/01/02 06:28:51;;;;;;;28.13;22.67;;;;;;;;;;10379169;28;20070;-59
2022/01/02 06:33:52;;;;;;;22.35;20.02;;;;;;;;;;10399268;28;20040;-59
2022/01/02 06:38:50;;;;;;;26.77;23.52;;;;;;;;;;10397926;28;20078;-59
2022/01/02 06:43:52;;;;;;;33.63;29.15;;;;;;;;;;10392070;28;20090;-57
2022/01/02 06:48:54;;;;;;;53.40;33.60;;;;;;;;;;10394679;28;20075;-57
2022/01/02 06:54:13;;;;;;;30.58;26.95;;;;;;;;;;10394501;28;20083;-56
2022/01/02 06:59:11;;;;;;;32.38;27.38;;;;;;;;;;10396148;28;20075;-57
2022/01/02 07:04:11;;;;;;;29.25;24.08;;;;;;;;;;10398553;28;20086;-58
2022/01/02 07:09:12;;;;;;;47.47;31.25;;;;;;;;;;10409324;27;20067;-58
2022/01/02 07:14:10;;;;;;;31.95;28.50;;;;;;;;;;10425196;27;20066;-59
2022/01/02 07:19:08;;;;;;;34.40;28.35;;;;;;;;;;10436282;27;20066;-59
2022/01/02 07:24:08;;;;;;;37.75;29.52;;;;;;;;;;10436210;27;20526;-58
2022/01/02 07:29:06;;;;;;;49.13;38.13;;;;;;;;;;10432789;27;20066;-60
2022/01/02 07:34:04;;;;;;;35.13;31.15;;;;;;;;;;10433441;27;20074;-59
2022/01/02 07:39:03;;;;;;;37.05;30.60;;;;;;;;;;10432436;27;20078;-58
2022/01/02 07:44:03;;;;;;;28.55;25.50;;;;;;;;;;10434607;27;20078;-59
2022/01/02 07:49:01;;;;;;;36.35;32.30;;;;;;;;;;10433460;27;20093;-59
2022/01/02 07:54:00;;;;;;;34.42;27.58;;;;;;;;;;10435144;27;20466;-59
2022/01/02 07:58:59;;;;;;;31.83;27.10;;;;;;;;;;10435112;27;20483;-59
2022/01/02 08:03:59;;;;;;;41.15;35.30;;;;;;;;;;10437589;27;20109;-59
2022/01/02 08:08:57;;;;;;;50.60;37.45;;;;;;;;;;10437490;27;20063;-58
2022/01/02 08:13:56;;;;;;;39.78;34.90;;;;;;;;;;10438259;27;20121;-59
2022/01/02 08:18:54;;;;;;;44.67;34.72;;;;;;;;;;10436462;27;20077;-58
2022/01/02 08:23:53;;;;;;;47.42;37.45;;;;;;;;;;10436729;27;20071;-58
2022/01/02 08:28:52;;;;;;;45.83;36.90;;;;;;;;;;10436747;27;20078;-60
2022/01/02 08:33:50;;;;;;;31.88;28.27;;;;;;;;;;10437172;27;20545;-57
2022/01/02 08:38:48;;;;;;;39.60;35.10;;;;;;;;;;10437102;27;20069;-58
2022/01/02 08:43:48;;;;;;;37.28;30.50;;;;;;;;;;10436303;27;20062;-58
2022/01/02 08:48:46;;;;;;;38.67;31.98;;;;;;;;;;10436185;27;20066;-58
2022/01/02 08:53:45;;;;;;;29.40;24.25;;;;;;;;;;10435276;27;20530;-59
2022/01/02 08:58:43;;;;;;;39.22;31.80;;;;;;;;;;10436152;27;20432;-59
2022/01/02 09:03:43;;;;;;;34.90;30.27;;;;;;;;;;10435997;27;20071;-61
2022/01/02 09:08:41;;;;;;;23.50;19.60;;;;;;;;;;10436074;27;20063;-58
2022/01/02 09:13:39;;;;;;;37.88;31.33;;;;;;;;;;10436103;27;20078;-58
2022/01/02 09:18:38;;;;;;;30.05;26.58;;;;;;;;;;10417237;27;20081;-58
2022/01/02 09:23:37;;;;;;;32.58;28.95;;;;;;;;;;10436194;27;20529;-59
2022/01/02 09:28:36;;;;;;;37.92;33.83;;;;;;;;;;10435435;27;20073;-59
2022/01/02 09:33:34;;;;;;;34.33;27.73;;;;;;;;;;10427953;27;20070;-59
2022/01/02 09:38:33;;;;;;;38.33;33.45;;;;;;;;;;10435204;27;20066;-59
2022/01/02 09:43:32;;;;;;;32.63;29.35;;;;;;;;;;10433941;27;20078;-59
2022/01/02 09:48:31;;;;;;;29.83;26.92;;;;;;;;;;10433663;27;20086;-59
2022/01/02 09:53:29;;;;;;;35.25;29.33;;;;;;;;;;10433033;27;20149;-59
2022/01/02 09:58:27;;;;;;;41.78;34.17;;;;;;;;;;10433890;27;20067;-59
2022/01/02 10:03:41;;;;;;;29.98;26.38;;;;;;;;;;10429172;27;20070;-57
2022/01/02 10:08:39;;;;;;;24.85;21.50;;;;;;;;;;10430432;27;20074;-59
2022/01/02 10:13:39;;;;;;;26.17;23.05;;;;;;;;;;10431779;27;20093;-55
2022/01/02 10:18:40;;;;;;;59.63;43.83;;;;;;;;;;10432310;27;20482;-58
2022/01/02 10:23:39;;;;;;;28.40;23.67;;;;;;;;;;10434130;28;20066;-57
2022/01/02 10:28:37;;;;;;;32.45;28.48;;;;;;;;;;10433904;28;20062;-50
2022/01/02 10:33:51;;;;;;;30.63;25.42;;;;;;;;;;10431375;28;20503;-58
2022/01/02 10:39:02;;;;;;;53.60;38.05;;;;;;;;;;10431391;28;20075;-58
2022/01/02 10:44:26;;;;;;;72.28;47.72;;;;;;;;;;10411933;28;20070;-59
2022/01/02 10:49:26;;;;;;;96.80;57.20;;;;;;;;;;10430939;28;20067;-58
2022/01/02 10:54:33;;;;;;;47.03;37.13;;;;;;;;;;10431346;28;20059;-57
2022/01/02 10:59:32;;;;;;;75.97;55.97;;;;;;;;;;10430028;28;20538;-57
2022/01/02 11:04:32;;;;;;;106.45;78.65;;;;;;;;;;10431240;28;20496;-58
2022/01/02 11:09:32;;;;;;;35.60;31.70;;;;;;;;;;10428990;28;20063;-59
2022/01/02 11:14:31;;;;;;;38.10;30.52;;;;;;;;;;10429407;27;20550;-59
2022/01/02 11:19:31;;;;;;;29.30;25.85;;;;;;;;;;10438838;27;20488;-58
2022/01/02 11:24:33;;;;;;;34.92;27.83;;;;;;;;;;10435719;27;20067;-58
2022/01/02 11:29:33;;;;;;;35.25;29.30;;;;;;;;;;10438543;27;20511;-59
2022/01/02 11:34:34;;;;;;;77.32;59.58;;;;;;;;;;10437398;27;20066;-59
2022/01/02 11:39:48;;;;;;;127.97;75.35;;;;;;;;;;10413524;27;20079;-59
2022/01/02 11:44:48;;;;;;;45.33;36.40;;;;;;;;;;10436877;27;20067;-58
2022/01/02 11:49:48;;;;;;;45.92;36.58;;;;;;;;;;10436744;27;20074;-54
2022/01/02 11:54:51;;;;;;;53.63;42.92;;;;;;;;;;10437733;27;20944;-57
2022/01/02 11:59:56;;;;;;;39.22;31.00;;;;;;;;;;10433040;27;20062;-53
2022/01/02 12:05:12;;;;;;;33.75;27.98;;;;;;;;;;10439202;27;20476;-56
2022/01/02 12:10:23;;;;;;;72.75;51.75;;;;;;;;;;10416806;27;20082;-60
2022/01/02 12:15:22;;;;;;;46.00;36.75;;;;;;;;;;10437675;27;20055;-58
2022/01/02 12:20:21;;;;;;;37.35;31.60;;;;;;;;;;10438058;27;20460;-57
2022/01/02 12:25:21;;;;;;;58.38;44.38;;;;;;;;;;10434662;27;20078;-53
2022/01/02 12:30:20;;;;;;;26.45;23.65;;;;;;;;;;10433127;27;20078;-57
2022/01/02 12:35:18;;;;;;;42.42;37.60;;;;;;;;;;10434286;27;20050;-56
2022/01/02 12:40:19;;;;;;;53.47;47.85;;;;;;;;;;10433344;27;20160;-56
2022/01/02 12:45:18;;;;;;;30.83;25.17;;;;;;;;;;10433014;27;20063;-57
2022/01/02 12:50:23;;;;;;;32.42;27.00;;;;;;;;;;10435090;27;20068;-59
2022/01/02 12:55:22;;;;;;;33.85;27.52;;;;;;;;;;10433372;27;20074;-58
2022/01/02 13:00:22;;;;;;;37.65;30.00;;;;;;;;;;10431921;27;20062;-55
2022/01/02 13:05:21;;;;;;;36.50;30.02;;;;;;;;;;10436661;27;20073;-54
2022/01/02 13:10:22;;;;;;;47.35;37.53;;;;;;;;;;10435784;27;20067;-60
2022/01/02 13:15:23;;;;;;;39.53;34.90;;;;;;;;;;10432017;27;20071;-59
2022/01/02 13:20:34;;;;;;;63.08;47.75;;;;;;;;;;10429838;27;20067;-58
2022/01/02 13:25:33;;;;;;;74.35;43.08;;;;;;;;;;10433654;27;20059;-59
2022/01/02 13:30:37;;;;;;;35.47;25.83;;;;;;;;;;10433377;27;20059;-59
2022/01/02 13:35:36;;;;;;;29.77;26.27;;;;;;;;;;10431154;27;20062;-59
2022/01/02 13:40:35;;;;;;;32.78;28.05;;;;;;;;;;10430374;27;20255;-59
2022/01/02 13:45:37;;;;;;;43.53;33.03;;;;;;;;;;10432153;27;20148;-59
2022/01/02 13:50:37;;;;;;;40.58;30.35;;;;;;;;;;10432660;27;20531;-59
2022/01/02 13:55:36;;;;;;;37.20;30.35;;;;;;;;;;10431786;27;20077;-59
2022/01/02 14:00:36;;;;;;;43.25;32.10;;;;;;;;;;10429729;27;20511;-56
2022/01/02 14:05:44;;;;;;;69.10;49.95;;;;;;;;;;10432568;27;20066;-59
2022/01/02 14:10:44;;;;;;;60.88;45.55;;;;;;;;;;10431671;27;20083;-58
2022/01/02 14:15:59;;;;;;;54.08;43.10;;;;;;;;;;10430710;27;20068;-59
2022/01/02 14:21:00;;;;;;;62.63;49.30;;;;;;;;;;10431498;27;20062;-59
2022/01/02 14:25:59;;;;;;;64.32;49.97;;;;;;;;;;10431183;28;20071;-58
2022/01/02 14:30:58;;;;;;;61.17;49.63;;;;;;;;;;10429427;28;20079;-58
2022/01/02 14:35:57;;;;;;;72.25;53.03;;;;;;;;;;10431250;28;20074;-59
2022/01/02 14:40:56;;;;;;;75.30;55.15;;;;;;;;;;10431754;28;20078;-58
2022/01/02 14:45:54;;;;;;;83.72;60.05;;;;;;;;;;10430880;28;20515;-59
2022/01/02 14:50:54;;;;;;;76.93;53.13;;;;;;;;;;10434841;27;20115;-59
2022/01/02 14:55:52;;;;;;;49.70;39.88;;;;;;;;;;10436838;27;20067;-58
2022/01/02 15:00:50;;;;;;;67.25;53.90;;;;;;;;;;10417227;27;20073;-57
2022/01/02 15:05:49;;;;;;;69.93;58.92;;;;;;;;;;10439236;27;20067;-59
2022/01/02 15:10:48;;;;;;;72.25;63.63;;;;;;;;;;10439452;27;20479;-59
2022/01/02 15:15:47;;;;;;;81.03;65.72;;;;;;;;;;10439491;27;20059;-58
2022/01/02 15:20:45;;;;;;;79.30;61.15;;;;;;;;;;10439333;27;20078;-59
2022/01/02 15:25:43;;;;;;;78.22;60.00;;;;;;;;;;10437754;27;20467;-58
2022/01/02 15:31:03;;;;;;;88.93;66.28;;;;;;;;;;10438725;27;20070;-55
2022/01/02 15:36:01;;;;;;;64.30;49.70;;;;;;;;;;10436571;27;20071;-58
2022/01/02 15:41:00;;;;;;;64.15;51.33;;;;;;;;;;10438067;27;20066;-55
2022/01/02 15:45:58;;;;;;;63.00;50.22;;;;;;;;;;10437423;27;20063;-59
2022/01/02 15:50:58;;;;;;;79.80;63.15;;;;;;;;;;10438570;27;20067;-58
2022/01/02 15:55:57;;;;;;;76.35;56.92;;;;;;;;;;10437471;27;20066;-59
2022/01/02 16:00:56;;;;;;;55.38;44.55;;;;;;;;;;10435401;27;20070;-58
2022/01/02 16:05:55;;;;;;;39.60;33.05;;;;;;;;;;10435500;27;20500;-58
2022/01/02 16:10:55;;;;;;;34.38;28.55;;;;;;;;;;10433244;27;20565;-58
2022/01/02 16:15:53;;;;;;;34.88;31.15;;;;;;;;;;10437101;27;20075;-58
2022/01/02 16:20:51;;;;;;;32.47;29.15;;;;;;;;;;10434388;27;20067;-58
2022/01/02 16:25:50;;;;;;;50.50;42.05;;;;;;;;;;10434996;27;20074;-58
2022/01/02 16:30:49;;;;;;;43.65;36.38;;;;;;;;;;10428695;27;20455;-58
2022/01/02 16:35:49;;;;;;;41.90;37.05;;;;;;;;;;10435339;27;20328;-59
2022/01/02 16:40:47;;;;;;;34.40;29.67;;;;;;;;;;10431048;27;20074;-59
2022/01/02 16:45:46;;;;;;;81.13;61.33;;;;;;;;;;10431757;27;20073;-59
2022/01/02 16:50:46;;;;;;;34.83;29.02;;;;;;;;;;10431853;27;20483;-59
2022/01/02 16:55:44;;;;;;;36.40;25.98;;;;;;;;;;10432261;27;20514;-59
2022/01/02 17:00:42;;;;;;;34.50;30.75;;;;;;;;;;10432808;27;20062;-57
2022/01/02 17:05:41;;;;;;;48.63;39.88;;;;;;;;;;10434930;27;20597;-58
2022/01/02 17:10:41;;;;;;;52.60;43.33;;;;;;;;;;10433294;27;20062;-59
2022/01/02 17:15:39;;;;;;;42.75;33.78;;;;;;;;;;10432051;27;20070;-58
2022/01/02 17:20:40;;;;;;;36.60;32.35;;;;;;;;;;10433292;27;20078;-55
2022/01/02 17:25:38;;;;;;;47.22;38.70;;;;;;;;;;10433173;27;20070;-59
2022/01/02 17:30:38;;;;;;;50.15;41.22;;;;;;;;;;10432506;27;20070;-59
2022/01/02 17:35:38;;;;;;;37.13;32.58;;;;;;;;;;10433405;27;20055;-59
2022/01/02 17:40:38;;;;;;;33.58;29.63;;;;;;;;;;10433697;27;20534;-59
2022/01/02 17:45:38;;;;;;;37.78;30.02;;;;;;;;;;10430696;27;20058;-58
2022/01/02 17:50:37;;;;;;;41.35;33.15;;;;;;;;;;10431290;27;20511;-59
2022/01/02 17:55:35;;;;;;;58.95;41.45;;;;;;;;;;10432751;27;20511;-59
2022/01/02 18:00:34;;;;;;;41.88;34.67;;;;;;;;;;10432250;27;20079;-59
2022/01/02 18:05:34;;;;;;;40.78;34.90;;;;;;;;;;10433824;27;20063;-59
2022/01/02 18:10:32;;;;;;;40.28;33.88;;;;;;;;;;10433654;27;20043;-59
2022/01/02 18:15:31;;;;;;;41.53;33.70;;;;;;;;;;10432292;27;20096;-59
2022/01/02 18:20:29;;;;;;;41.45;34.67;;;;;;;;;;10432374;27;20070;-58
2022/01/02 18:25:29;;;;;;;47.17;34.97;;;;;;;;;;10432106;27;20067;-59
2022/01/02 18:30:27;;;;;;;41.28;33.50;;;;;;;;;;10432016;28;20154;-59
2022/01/02 18:35:26;;;;;;;40.83;32.97;;;;;;;;;;10432157;28;20059;-59
2022/01/02 18:40:25;;;;;;;44.65;36.22;;;;;;;;;;10431839;28;20070;-59
2022/01/02 18:45:25;;;;;;;49.88;38.00;;;;;;;;;;10412309;28;20093;-59
2022/01/02 18:50:23;;;;;;;51.40;40.42;;;;;;;;;;10433137;28;20063;-59
2022/01/02 18:55:22;;;;;;;51.83;40.08;;;;;;;;;;10432033;28;20040;-55
2022/01/02 19:00:20;;;;;;;39.15;32.72;;;;;;;;;;10431890;28;20507;-59
2022/01/02 19:05:19;;;;;;;41.42;32.38;;;;;;;;;;10429389;28;20066;-57
2022/01/02 19:10:18;;;;;;;42.25;36.08;;;;;;;;;;10427872;28;20067;-58
2022/01/02 19:15:16;;;;;;;41.40;34.78;;;;;;;;;;10430991;28;20070;-58
2022/01/02 19:20:15;;;;;;;59.55;46.58;;;;;;;;;;10429136;28;20063;-58
2022/01/02 19:25:15;;;;;;;44.67;35.95;;;;;;;;;;10433099;28;20499;-59
2022/01/02 19:30:13;;;;;;;34.95;30.98;;;;;;;;;;10432977;28;20176;-58
2022/01/02 19:35:12;;;;;;;27.45;24.55;;;;;;;;;;10431493;27;20063;-59
2022/01/02 19:40:11;;;;;;;25.25;22.55;;;;;;;;;;10439066;27;20062;-58
2022/01/02 19:45:12;;;;;;;24.65;19.75;;;;;;;;;;10439155;27;20098;-54
2022/01/02 19:50:13;;;;;;;23.30;19.95;;;;;;;;;;10434944;27;20506;-59
2022/01/02 19:55:11;;;;;;;26.10;23.02;;;;;;;;;;10438905;27;20062;-56
2022/01/02 20:00:13;;;;;;;27.38;22.05;;;;;;;;;;10438190;27;20460;-56
2022/01/02 20:05:11;;;;;;;29.20;25.98;;;;;;;;;;10433443;27;20136;-59
2022/01/02 20:10:10;;;;;;;25.90;21.23;;;;;;;;;;10439250;27;20275;-58
2022/01/02 20:15:11;;;;;;;24.25;21.67;;;;;;;;;;10437523;27;20082;-58
2022/01/02 20:20:13;;;;;;;77.40;53.05;;;;;;;;;;10436296;27;20074;-58
2022/01/02 20:25:12;;;;;;;62.47;46.72;;;;;;;;;;10435606;27;20082;-59
2022/01/02 20:30:11;;;;;;;57.20;44.83;;;;;;;;;;10436847;27;20063;-58
2022/01/02 20:35:11;;;;;;;102.32;74.47;;;;;;;;;;10435333;27;20092;-59
2022/01/02 20:40:11;;;;;;;66.13;49.05;;;;;;;;;;10431614;27;20078;-58
2022/01/02 20:45:10;;;;;;;79.65;59.13;;;;;;;;;;10434999;27;20192;-57
2022/01/02 20:50:09;;;;;;;191.05;139.45;;;;;;;;;;10435371;27;20059;-57
2022/01/02 20:55:10;;;;;;;216.38;153.50;;;;;;;;;;10431313;27;20491;-59
2022/01/02 21:00:10;;;;;;;257.02;43.08;;;;;;;;;;10434955;27;20077;-59
2022/01/02 21:05:09;;;;;;;226.10;35.75;;;;;;;;;;10434777;27;20453;-58
2022/01/02 21:10:09;;;;;;;71.85;28.63;;;;;;;;;;10433043;27;20069;-59
2022/01/02 21:15:09;;;;;;;52.13;25.05;;;;;;;;;;10434354;27;20074;-59
2022/01/02 21:20:09;;;;;;;76.15;26.67;;;;;;;;;;10433206;27;20073;-58
2022/01/02 21:25:10;;;;;;;111.07;29.00;;;;;;;;;;10428424;27;20078;-58
2022/01/02 21:30:10;;;;;;;26.55;22.40;;;;;;;;;;10435731;27;20069;-58
2022/01/02 21:35:15;;;;;;;30.65;21.33;;;;;;;;;;10432941;27;20483;-57
2022/01/02 21:40:13;;;;;;;;;;;;;;;;;;10431449;27;20058;-58
2022/01/02 21:45:13;;;;;;;164.40;26.65;;;;;;;;;;10434629;27;19955;-57
2022/01/02 21:50:11;;;;;;;92.15;19.13;;;;;;;;;;10434161;27;20078;-54
2022/01/02 21:55:10;;;;;;;95.40;16.20;;;;;;;;;;10429990;27;20529;-55
2022/01/02 22:00:10;;;;;;;69.78;17.20;;;;;;;;;;10431091;27;20065;-57
2022/01/02 22:05:11;;;;;;;54.15;15.73;;;;;;;;;;10429843;27;20079;-57
2022/01/02 22:10:15;;;;;;;61.35;17.77;;;;;;;;;;10429641;27;20078;-58
2022/01/02 22:15:15;;;;;;;44.60;15.73;;;;;;;;;;10430672;27;20071;-58
2022/01/02 22:20:16;;;;;;;84.22;31.00;;;;;;;;;;10431684;27;20074;-58
2022/01/02 22:25:18;;;;;;;92.88;42.53;;;;;;;;;;10430363;28;20074;-58
2022/01/02 22:30:17;;;;;;;108.82;51.83;;;;;;;;;;10428026;28;20055;-58
2022/01/02 22:35:17;;;;;;;63.63;24.08;;;;;;;;;;10425873;28;20078;-55
2022/01/02 22:40:19;;;;;;;82.72;18.67;;;;;;;;;;10427158;28;20059;-57
2022/01/02 22:45:17;;;;;;;70.20;17.27;;;;;;;;;;10432063;28;20070;-55
2022/01/02 22:50:17;;;;;;;65.05;11.90;;;;;;;;;;10433023;28;20063;-52
2022/01/02 22:55:16;;;;;;;32.65;13.35;;;;;;;;;;10431726;28;20511;-57
2022/01/02 23:00:16;;;;;;;28.20;12.65;;;;;;;;;;10431617;28;20149;-55
2022/01/02 23:05:19;;;;;;;17.08;13.77;;;;;;;;;;10424925;28;20078;-59
2022/01/02 23:10:17;;;;;;;31.08;14.73;;;;;;;;;;10431735;27;20070;-57
2022/01/02 23:15:15;;;;;;;50.92;15.55;;;;;;;;;;10438356;27;20518;-59
2022/01/02 23:20:13;;;;;;;24.25;13.30;;;;;;;;;;10441908;27;20050;-59
2022/01/02 23:25:15;;;;;;;55.33;13.40;;;;;;;;;;10441192;27;20093;-59
2022/01/02 23:30:13;;;;;;;76.53;15.40;;;;;;;;;;10441532;27;20070;-57
2022/01/02 23:35:12;;;;;;;90.05;14.80;;;;;;;;;;10441589;27;20058;-59
2022/01/02 23:40:10;;;;;;;48.67;13.90;;;;;;;;;;10441806;27;20415;-59
2022/01/02 23:45:10;;;;;;;83.47;15.73;;;;;;;;;;10441660;27;20070;-57
2022/01/02 23:50:10;;;;;;;56.42;13.40;;;;;;;;;;10441241;27;20069;-56
2022/01/02 23:55:09;;;;;;;50.20;14.90;;;;;;;;;;10440456;27;20098;-57
